Time;durP1;ratioP1;P1;durP2;ratioP2;P2;SDS_P1;SDS_P2;PMS_P1;PMS_P2;Temp;Humidity;BMP_temperature;BMP_pressure;BME280_temperature;BME280_humidity;BME280_pressure;Samples;Min_cycle;Max_cycle;Signal;HPM_P1;HPM_P2
2021/05/17 00:00:00;;;;;;;0.8;0.8;;;;;;;9.02;100;94113.7;;;;
2021/05/17 00:01:03;;;;;;;0.8;0.8;;;;;;;9.02;100;94113.7;;;;
2021/05/17 00:02:04;;;;;;;0.8;0.8;;;;;;;9.02;100;94113.7;;;;
2021/05/17 00:03:07;;;;;;;0.8;0.8;;;;;;;9.02;100;94113.7;;;;
2021/05/17 00:04:10;;;;;;;0.8;0.8;;;;;;;9.02;100;94113.7;;;;
2021/05/17 00:05:10;;;;;;;0.8;0.8;;;;;;;9.02;100;94113.7;;;;
2021/05/17 00:06:12;;;;;;;0.8;0.8;;;;;;;9.02;100;94113.7;;;;
2021/05/17 00:07:13;;;;;;;0.8;0.8;;;;;;;9.02;100;94113.7;;;;
2021/05/17 00:08:15;;;;;;;0.8;0.8;;;;;;;9.02;100;94113.7;;;;
2021/05/17 00:09:16;;;;;;;0.7;0.7;;;;;;;8.89;100;94121.77;;;;
2021/05/17 00:10:16;;;;;;;0.7;0.7;;;;;;;8.89;100;94121.77;;;;
2021/05/17 00:11:18;;;;;;;0.7;0.7;;;;;;;8.89;100;94121.77;;;;
2021/05/17 00:12:19;;;;;;;0.7;0.7;;;;;;;8.89;100;94121.77;;;;
2021/05/17 00:13:20;;;;;;;0.7;0.7;;;;;;;8.89;100;94121.77;;;;
2021/05/17 00:14:20;;;;;;;0.7;0.7;;;;;;;8.89;100;94121.77;;;;
2021/05/17 00:15:23;;;;;;;0.7;0.7;;;;;;;8.89;100;94121.77;;;;
2021/05/17 00:16:24;;;;;;;0.7;0.7;;;;;;;8.89;100;94121.77;;;;
2021/05/17 00:17:25;;;;;;;0.7;0.7;;;;;;;8.89;100;94121.77;;;;
2021/05/17 00:18:26;;;;;;;0.7;0.7;;;;;;;8.89;100;94121.77;;;;
2021/05/17 00:19:27;;;;;;;0.7;0.7;;;;;;;8.89;100;94121.77;;;;
2021/05/17 00:20:28;;;;;;;0.75;0.75;;;;;;;8.83;100;94119.7;;;;
2021/05/17 00:21:28;;;;;;;0.75;0.75;;;;;;;8.83;100;94119.7;;;;
2021/05/17 00:22:30;;;;;;;0.75;0.75;;;;;;;8.83;100;94119.7;;;;
2021/05/17 00:23:31;;;;;;;0.75;0.75;;;;;;;8.83;100;94119.7;;;;
2021/05/17 00:24:32;;;;;;;0.75;0.75;;;;;;;8.83;100;94119.7;;;;
2021/05/17 00:25:32;;;;;;;0.75;0.75;;;;;;;8.83;100;94119.7;;;;
2021/05/17 00:26:34;;;;;;;0.75;0.75;;;;;;;8.83;100;94119.7;;;;
2021/05/17 00:27:35;;;;;;;0.75;0.75;;;;;;;8.83;100;94119.7;;;;
2021/05/17 00:28:36;;;;;;;0.75;0.75;;;;;;;8.83;100;94119.7;;;;
2021/05/17 00:29:37;;;;;;;0.75;0.75;;;;;;;8.83;100;94119.7;;;;
2021/05/17 00:30:38;;;;;;;1.6;0.8;;;;;;;8.8;100;94132.7;;;;
2021/05/17 00:31:39;;;;;;;1.6;0.8;;;;;;;8.8;100;94132.7;;;;
2021/05/17 00:32:42;;;;;;;1.6;0.8;;;;;;;8.8;100;94132.7;;;;
2021/05/17 00:33:43;;;;;;;1.6;0.8;;;;;;;8.8;100;94132.7;;;;
2021/05/17 00:34:43;;;;;;;1.6;0.8;;;;;;;8.8;100;94132.7;;;;
2021/05/17 00:35:45;;;;;;;1.6;0.8;;;;;;;8.8;100;94132.7;;;;
2021/05/17 00:36:46;;;;;;;1.6;0.8;;;;;;;8.8;100;94132.7;;;;
2021/05/17 00:37:48;;;;;;;1.6;0.8;;;;;;;8.8;100;94132.7;;;;
2021/05/17 00:38:49;;;;;;;1.6;0.8;;;;;;;8.8;100;94132.7;;;;
2021/05/17 00:39:50;;;;;;;1.6;0.8;;;;;;;8.8;100;94132.7;;;;
2021/05/17 00:40:51;;;;;;;1.6;0.8;;;;;;;8.8;100;94132.7;;;;
2021/05/17 00:41:52;;;;;;;1;0.7;;;;;;;8.72;100;94139.48;;;;
2021/05/17 00:42:53;;;;;;;1;0.7;;;;;;;8.72;100;94139.48;;;;
2021/05/17 00:43:54;;;;;;;1;0.7;;;;;;;8.72;100;94139.48;;;;
2021/05/17 00:44:56;;;;;;;1;0.7;;;;;;;8.72;100;94139.48;;;;
2021/05/17 00:45:56;;;;;;;1;0.7;;;;;;;8.72;100;94139.48;;;;
2021/05/17 00:46:57;;;;;;;1;0.7;;;;;;;8.72;100;94139.48;;;;
2021/05/17 00:47:58;;;;;;;1;0.7;;;;;;;8.72;100;94139.48;;;;
2021/05/17 00:48:59;;;;;;;1;0.7;;;;;;;8.72;100;94139.48;;;;
2021/05/17 00:50:01;;;;;;;1;0.7;;;;;;;8.72;100;94139.48;;;;
2021/05/17 00:51:02;;;;;;;1;0.7;;;;;;;8.72;100;94139.48;;;;
2021/05/17 00:52:03;;;;;;;1.45;0.9;;;;;;;8.62;100;94146.49;;;;
2021/05/17 00:53:04;;;;;;;1.45;0.9;;;;;;;8.62;100;94146.49;;;;
2021/05/17 00:54:05;;;;;;;1.45;0.9;;;;;;;8.62;100;94146.49;;;;
2021/05/17 00:55:06;;;;;;;1.45;0.9;;;;;;;8.62;100;94146.49;;;;
2021/05/17 00:56:09;;;;;;;1.45;0.9;;;;;;;8.62;100;94146.49;;;;
2021/05/17 00:57:10;;;;;;;1.45;0.9;;;;;;;8.62;100;94146.49;;;;
2021/05/17 00:58:12;;;;;;;1.45;0.9;;;;;;;8.62;100;94146.49;;;;
2021/05/17 00:59:12;;;;;;;1.45;0.9;;;;;;;8.62;100;94146.49;;;;
2021/05/17 01:00:13;;;;;;;1.45;0.9;;;;;;;8.62;100;94146.49;;;;
2021/05/17 01:01:18;;;;;;;1.45;0.9;;;;;;;8.62;100;94146.49;;;;
2021/05/17 01:02:18;;;;;;;1.45;0.9;;;;;;;8.62;100;94146.49;;;;
2021/05/17 01:03:19;;;;;;;1.9;1.2;;;;;;;8.65;100;94139.7;;;;
2021/05/17 01:04:20;;;;;;;1.9;1.2;;;;;;;8.65;100;94139.7;;;;
2021/05/17 01:05:21;;;;;;;1.9;1.2;;;;;;;8.65;100;94139.7;;;;
2021/05/17 01:06:21;;;;;;;1.9;1.2;;;;;;;8.65;100;94139.7;;;;
2021/05/17 01:07:25;;;;;;;1.9;1.2;;;;;;;8.65;100;94139.7;;;;
2021/05/17 01:08:26;;;;;;;1.9;1.2;;;;;;;8.65;100;94139.7;;;;
2021/05/17 01:09:33;;;;;;;1.9;1.2;;;;;;;8.65;100;94139.7;;;;
2021/05/17 01:10:34;;;;;;;1.9;1.2;;;;;;;8.65;100;94139.7;;;;
2021/05/17 01:11:42;;;;;;;1.9;1.2;;;;;;;8.65;100;94139.7;;;;
2021/05/17 01:12:43;;;;;;;1.9;1.2;;;;;;;8.65;100;94139.7;;;;
2021/05/17 01:13:44;;;;;;;1.6;1.1;;;;;;;8.72;100;94164.53;;;;
2021/05/17 01:14:45;;;;;;;1.6;1.1;;;;;;;8.72;100;94164.53;;;;
2021/05/17 01:15:47;;;;;;;1.6;1.1;;;;;;;8.72;100;94164.53;;;;
2021/05/17 01:16:48;;;;;;;1.6;1.1;;;;;;;8.72;100;94164.53;;;;
2021/05/17 01:17:50;;;;;;;1.6;1.1;;;;;;;8.72;100;94164.53;;;;
2021/05/17 01:18:53;;;;;;;1.6;1.1;;;;;;;8.72;100;94164.53;;;;
2021/05/17 01:19:54;;;;;;;1.6;1.1;;;;;;;8.72;100;94164.53;;;;
2021/05/17 01:21:04;;;;;;;1.6;1.1;;;;;;;8.72;100;94164.53;;;;
2021/05/17 01:22:10;;;;;;;1.6;1.1;;;;;;;8.72;100;94164.53;;;;
2021/05/17 01:23:32;;;;;;;1.6;1.1;;;;;;;8.72;100;94164.53;;;;
2021/05/17 01:24:33;;;;;;;2.35;1.3;;;;;;;8.68;100;94180.89;;;;
2021/05/17 01:25:35;;;;;;;2.35;1.3;;;;;;;8.68;100;94180.89;;;;
2021/05/17 01:26:36;;;;;;;2.35;1.3;;;;;;;8.68;100;94180.89;;;;
2021/05/17 01:27:37;;;;;;;2.35;1.3;;;;;;;8.68;100;94180.89;;;;
2021/05/17 01:28:38;;;;;;;2.35;1.3;;;;;;;8.68;100;94180.89;;;;
2021/05/17 01:29:40;;;;;;;2.35;1.3;;;;;;;8.68;100;94180.89;;;;
2021/05/17 01:30:41;;;;;;;2.35;1.3;;;;;;;8.68;100;94180.89;;;;
2021/05/17 01:31:42;;;;;;;2.35;1.3;;;;;;;8.68;100;94180.89;;;;
2021/05/17 01:32:43;;;;;;;2.35;1.3;;;;;;;8.68;100;94180.89;;;;
2021/05/17 01:33:45;;;;;;;2.35;1.3;;;;;;;8.68;100;94180.89;;;;
2021/05/17 01:34:47;;;;;;;2.95;1.2;;;;;;;8.67;100;94187.73;;;;
2021/05/17 01:35:48;;;;;;;2.95;1.2;;;;;;;8.67;100;94187.73;;;;
2021/05/17 01:36:51;;;;;;;2.95;1.2;;;;;;;8.67;100;94187.73;;;;
2021/05/17 01:37:51;;;;;;;2.95;1.2;;;;;;;8.67;100;94187.73;;;;
2021/05/17 01:38:52;;;;;;;2.95;1.2;;;;;;;8.67;100;94187.73;;;;
2021/05/17 01:39:54;;;;;;;2.95;1.2;;;;;;;8.67;100;94187.73;;;;
2021/05/17 01:40:57;;;;;;;2.95;1.2;;;;;;;8.67;100;94187.73;;;;
2021/05/17 01:41:58;;;;;;;2.95;1.2;;;;;;;8.67;100;94187.73;;;;
2021/05/17 01:43:00;;;;;;;2.95;1.2;;;;;;;8.67;100;94187.73;;;;
2021/05/17 01:44:02;;;;;;;2.95;1.2;;;;;;;8.67;100;94187.73;;;;
2021/05/17 01:45:05;;;;;;;1.85;1.2;;;;;;;8.8;100;94189.63;;;;
2021/05/17 01:46:08;;;;;;;1.85;1.2;;;;;;;8.8;100;94189.63;;;;
2021/05/17 01:47:12;;;;;;;1.85;1.2;;;;;;;8.8;100;94189.63;;;;
2021/05/17 01:48:17;;;;;;;1.85;1.2;;;;;;;8.8;100;94189.63;;;;
2021/05/17 01:49:23;;;;;;;1.85;1.2;;;;;;;8.8;100;94189.63;;;;
2021/05/17 01:50:25;;;;;;;1.85;1.2;;;;;;;8.8;100;94189.63;;;;
2021/05/17 01:51:26;;;;;;;1.85;1.2;;;;;;;8.8;100;94189.63;;;;
2021/05/17 01:52:27;;;;;;;1.85;1.2;;;;;;;8.8;100;94189.63;;;;
2021/05/17 01:53:28;;;;;;;1.85;1.2;;;;;;;8.8;100;94189.63;;;;
2021/05/17 01:54:33;;;;;;;1.85;1.2;;;;;;;8.8;100;94189.63;;;;
2021/05/17 01:55:42;;;;;;;1.85;1.2;;;;;;;8.8;100;94189.63;;;;
2021/05/17 01:56:43;;;;;;;2.5;1.2;;;;;;;8.96;100;94187.39;;;;
2021/05/17 01:57:44;;;;;;;2.5;1.2;;;;;;;8.96;100;94187.39;;;;
2021/05/17 01:58:45;;;;;;;2.5;1.2;;;;;;;8.96;100;94187.39;;;;
2021/05/17 01:59:46;;;;;;;2.5;1.2;;;;;;;8.96;100;94187.39;;;;
2021/05/17 02:00:47;;;;;;;2.5;1.2;;;;;;;8.96;100;94187.39;;;;
2021/05/17 02:01:48;;;;;;;2.5;1.2;;;;;;;8.96;100;94187.39;;;;
2021/05/17 02:02:48;;;;;;;2.5;1.2;;;;;;;8.96;100;94187.39;;;;
2021/05/17 02:03:51;;;;;;;2.5;1.2;;;;;;;8.96;100;94187.39;;;;
2021/05/17 02:04:52;;;;;;;2.5;1.2;;;;;;;8.96;100;94187.39;;;;
2021/05/17 02:05:54;;;;;;;2.5;1.2;;;;;;;8.96;100;94187.39;;;;
2021/05/17 02:06:54;;;;;;;2.35;1.2;;;;;;;9.06;100;94191.67;;;;
2021/05/17 02:07:56;;;;;;;2.35;1.2;;;;;;;9.06;100;94191.67;;;;
2021/05/17 02:08:56;;;;;;;2.35;1.2;;;;;;;9.06;100;94191.67;;;;
2021/05/17 02:09:57;;;;;;;2.35;1.2;;;;;;;9.06;100;94191.67;;;;
2021/05/17 02:11:01;;;;;;;2.35;1.2;;;;;;;9.06;100;94191.67;;;;
2021/05/17 02:12:02;;;;;;;2.35;1.2;;;;;;;9.06;100;94191.67;;;;
2021/05/17 02:13:04;;;;;;;2.35;1.2;;;;;;;9.06;100;94191.67;;;;
2021/05/17 02:14:06;;;;;;;2.35;1.2;;;;;;;9.06;100;94191.67;;;;
2021/05/17 02:15:07;;;;;;;2.35;1.2;;;;;;;9.06;100;94191.67;;;;
2021/05/17 02:16:11;;;;;;;2.35;1.2;;;;;;;9.06;100;94191.67;;;;
2021/05/17 02:17:12;;;;;;;2.3;1.1;;;;;;;9.15;100;94190.56;;;;
2021/05/17 02:18:13;;;;;;;2.3;1.1;;;;;;;9.15;100;94190.56;;;;
2021/05/17 02:19:15;;;;;;;2.3;1.1;;;;;;;9.15;100;94190.56;;;;
2021/05/17 02:20:20;;;;;;;2.3;1.1;;;;;;;9.15;100;94190.56;;;;
2021/05/17 02:21:22;;;;;;;2.3;1.1;;;;;;;9.15;100;94190.56;;;;
2021/05/17 02:22:23;;;;;;;2.3;1.1;;;;;;;9.15;100;94190.56;;;;
2021/05/17 02:23:24;;;;;;;2.3;1.1;;;;;;;9.15;100;94190.56;;;;
2021/05/17 02:24:24;;;;;;;2.3;1.1;;;;;;;9.15;100;94190.56;;;;
2021/05/17 02:25:26;;;;;;;2.3;1.1;;;;;;;9.15;100;94190.56;;;;
2021/05/17 02:26:27;;;;;;;2.3;1.1;;;;;;;9.15;100;94190.56;;;;
2021/05/17 02:27:28;;;;;;;2.3;1.1;;;;;;;9.15;100;94190.56;;;;
2021/05/17 02:28:29;;;;;;;1.9;1.1;;;;;;;9.17;100;94195.98;;;;
2021/05/17 02:29:29;;;;;;;1.9;1.1;;;;;;;9.17;100;94195.98;;;;
2021/05/17 02:30:31;;;;;;;1.9;1.1;;;;;;;9.17;100;94195.98;;;;
2021/05/17 02:31:32;;;;;;;1.9;1.1;;;;;;;9.17;100;94195.98;;;;
2021/05/17 02:32:34;;;;;;;1.9;1.1;;;;;;;9.17;100;94195.98;;;;
2021/05/17 02:33:34;;;;;;;1.9;1.1;;;;;;;9.17;100;94195.98;;;;
2021/05/17 02:34:35;;;;;;;1.9;1.1;;;;;;;9.17;100;94195.98;;;;
2021/05/17 02:35:37;;;;;;;1.9;1.1;;;;;;;9.17;100;94195.98;;;;
2021/05/17 02:36:38;;;;;;;1.9;1.1;;;;;;;9.17;100;94195.98;;;;
2021/05/17 02:37:39;;;;;;;1.9;1.1;;;;;;;9.17;100;94195.98;;;;
2021/05/17 02:38:40;;;;;;;1.15;1;;;;;;;9.12;100;94199.95;;;;
2021/05/17 02:39:41;;;;;;;1.15;1;;;;;;;9.12;100;94199.95;;;;
2021/05/17 02:40:42;;;;;;;1.15;1;;;;;;;9.12;100;94199.95;;;;
2021/05/17 02:41:43;;;;;;;1.15;1;;;;;;;9.12;100;94199.95;;;;
2021/05/17 02:42:44;;;;;;;1.15;1;;;;;;;9.12;100;94199.95;;;;
2021/05/17 02:43:46;;;;;;;1.15;1;;;;;;;9.12;100;94199.95;;;;
2021/05/17 02:44:47;;;;;;;1.15;1;;;;;;;9.12;100;94199.95;;;;
2021/05/17 02:45:48;;;;;;;1.15;1;;;;;;;9.12;100;94199.95;;;;
2021/05/17 02:46:50;;;;;;;1.15;1;;;;;;;9.12;100;94199.95;;;;
2021/05/17 02:47:52;;;;;;;1.15;1;;;;;;;9.12;100;94199.95;;;;
2021/05/17 02:48:53;;;;;;;1.15;1;;;;;;;9.12;100;94199.95;;;;
2021/05/17 02:49:54;;;;;;;1.2;1;;;;;;;9.05;100;94218.33;;;;
2021/05/17 02:50:55;;;;;;;1.2;1;;;;;;;9.05;100;94218.33;;;;
2021/05/17 02:51:57;;;;;;;1.2;1;;;;;;;9.05;100;94218.33;;;;
2021/05/17 02:52:59;;;;;;;1.2;1;;;;;;;9.05;100;94218.33;;;;
2021/05/17 02:54:01;;;;;;;1.2;1;;;;;;;9.05;100;94218.33;;;;
2021/05/17 02:55:14;;;;;;;1.2;1;;;;;;;9.05;100;94218.33;;;;
2021/05/17 02:56:15;;;;;;;1.2;1;;;;;;;9.05;100;94218.33;;;;
2021/05/17 02:57:17;;;;;;;1.2;1;;;;;;;9.05;100;94218.33;;;;
2021/05/17 02:58:28;;;;;;;1.2;1;;;;;;;9.05;100;94218.33;;;;
2021/05/17 02:59:32;;;;;;;1.2;1;;;;;;;9.05;100;94218.33;;;;
2021/05/17 03:00:53;;;;;;;0.7;0.7;;;;;;;8.98;100;94226.17;;;;
2021/05/17 03:02:03;;;;;;;0.7;0.7;;;;;;;8.98;100;94226.17;;;;
2021/05/17 03:03:07;;;;;;;0.7;0.7;;;;;;;8.98;100;94226.17;;;;
2021/05/17 03:04:12;;;;;;;0.7;0.7;;;;;;;8.98;100;94226.17;;;;
2021/05/17 03:05:17;;;;;;;0.7;0.7;;;;;;;8.98;100;94226.17;;;;
2021/05/17 03:06:19;;;;;;;0.7;0.7;;;;;;;8.98;100;94226.17;;;;
2021/05/17 03:07:30;;;;;;;0.7;0.7;;;;;;;8.98;100;94226.17;;;;
2021/05/17 03:08:35;;;;;;;0.7;0.7;;;;;;;8.98;100;94226.17;;;;
2021/05/17 03:09:45;;;;;;;0.7;0.7;;;;;;;8.98;100;94226.17;;;;
2021/05/17 03:10:47;;;;;;;3.2;2.7;;;;;;;8.97;100;94232.64;;;;
2021/05/17 03:11:48;;;;;;;3.2;2.7;;;;;;;8.97;100;94232.64;;;;
2021/05/17 03:12:52;;;;;;;3.2;2.7;;;;;;;8.97;100;94232.64;;;;
2021/05/17 03:13:55;;;;;;;3.2;2.7;;;;;;;8.97;100;94232.64;;;;
2021/05/17 03:14:58;;;;;;;3.2;2.7;;;;;;;8.97;100;94232.64;;;;
2021/05/17 03:15:59;;;;;;;3.2;2.7;;;;;;;8.97;100;94232.64;;;;
2021/05/17 03:17:01;;;;;;;3.2;2.7;;;;;;;8.97;100;94232.64;;;;
2021/05/17 03:18:02;;;;;;;3.2;2.7;;;;;;;8.97;100;94232.64;;;;
2021/05/17 03:19:04;;;;;;;3.2;2.7;;;;;;;8.97;100;94232.64;;;;
2021/05/17 03:20:06;;;;;;;3.2;2.7;;;;;;;8.97;100;94232.64;;;;
2021/05/17 03:21:07;;;;;;;1.05;0.8;;;;;;;8.98;100;94227.14;;;;
2021/05/17 03:22:08;;;;;;;1.05;0.8;;;;;;;8.98;100;94227.14;;;;
2021/05/17 03:23:10;;;;;;;1.05;0.8;;;;;;;8.98;100;94227.14;;;;
2021/05/17 03:24:14;;;;;;;1.05;0.8;;;;;;;8.98;100;94227.14;;;;
2021/05/17 03:25:15;;;;;;;1.05;0.8;;;;;;;8.98;100;94227.14;;;;
2021/05/17 03:26:17;;;;;;;1.05;0.8;;;;;;;8.98;100;94227.14;;;;
2021/05/17 03:27:20;;;;;;;1.05;0.8;;;;;;;8.98;100;94227.14;;;;
2021/05/17 03:28:22;;;;;;;1.05;0.8;;;;;;;8.98;100;94227.14;;;;
2021/05/17 03:29:23;;;;;;;1.05;0.8;;;;;;;8.98;100;94227.14;;;;
2021/05/17 03:30:23;;;;;;;1.05;0.8;;;;;;;8.98;100;94227.14;;;;
2021/05/17 03:31:25;;;;;;;1.05;0.8;;;;;;;8.98;100;94227.14;;;;
2021/05/17 03:32:26;;;;;;;1.55;0.8;;;;;;;8.99;100;94236.72;;;;
2021/05/17 03:33:27;;;;;;;1.55;0.8;;;;;;;8.99;100;94236.72;;;;
2021/05/17 03:34:27;;;;;;;1.55;0.8;;;;;;;8.99;100;94236.72;;;;
2021/05/17 03:35:28;;;;;;;1.55;0.8;;;;;;;8.99;100;94236.72;;;;
2021/05/17 03:36:29;;;;;;;1.55;0.8;;;;;;;8.99;100;94236.72;;;;
2021/05/17 03:37:29;;;;;;;1.55;0.8;;;;;;;8.99;100;94236.72;;;;
2021/05/17 03:38:30;;;;;;;1.55;0.8;;;;;;;8.99;100;94236.72;;;;
2021/05/17 03:39:31;;;;;;;1.55;0.8;;;;;;;8.99;100;94236.72;;;;
2021/05/17 03:40:31;;;;;;;1.55;0.8;;;;;;;8.99;100;94236.72;;;;
2021/05/17 03:41:32;;;;;;;1.55;0.8;;;;;;;8.99;100;94236.72;;;;
2021/05/17 03:42:32;;;;;;;1.1;0.8;;;;;;;9.01;100;94236.05;;;;
2021/05/17 03:43:33;;;;;;;1.1;0.8;;;;;;;9.01;100;94236.05;;;;
2021/05/17 03:44:34;;;;;;;1.1;0.8;;;;;;;9.01;100;94236.05;;;;
2021/05/17 03:45:34;;;;;;;1.1;0.8;;;;;;;9.01;100;94236.05;;;;
2021/05/17 03:46:35;;;;;;;1.1;0.8;;;;;;;9.01;100;94236.05;;;;
2021/05/17 03:47:35;;;;;;;1.1;0.8;;;;;;;9.01;100;94236.05;;;;
2021/05/17 03:48:40;;;;;;;1.1;0.8;;;;;;;9.01;100;94236.05;;;;
2021/05/17 03:49:41;;;;;;;1.1;0.8;;;;;;;9.01;100;94236.05;;;;
2021/05/17 03:50:42;;;;;;;1.1;0.8;;;;;;;9.01;100;94236.05;;;;
2021/05/17 03:51:42;;;;;;;1.1;0.8;;;;;;;9.01;100;94236.05;;;;
2021/05/17 03:52:43;;;;;;;1.1;0.8;;;;;;;9.01;100;94236.05;;;;
2021/05/17 03:53:43;;;;;;;1.6;0.9;;;;;;;9.01;100;94248.02;;;;
2021/05/17 03:54:44;;;;;;;1.6;0.9;;;;;;;9.01;100;94248.02;;;;
2021/05/17 03:55:44;;;;;;;1.6;0.9;;;;;;;9.01;100;94248.02;;;;
2021/05/17 03:56:45;;;;;;;1.6;0.9;;;;;;;9.01;100;94248.02;;;;
2021/05/17 03:57:45;;;;;;;1.6;0.9;;;;;;;9.01;100;94248.02;;;;
2021/05/17 03:58:46;;;;;;;1.6;0.9;;;;;;;9.01;100;94248.02;;;;
2021/05/17 03:59:46;;;;;;;1.6;0.9;;;;;;;9.01;100;94248.02;;;;
2021/05/17 04:00:47;;;;;;;1.6;0.9;;;;;;;9.01;100;94248.02;;;;
2021/05/17 04:01:49;;;;;;;1.6;0.9;;;;;;;9.01;100;94248.02;;;;
2021/05/17 04:02:49;;;;;;;1.6;0.9;;;;;;;9.01;100;94248.02;;;;
2021/05/17 04:03:52;;;;;;;1.3;0.9;;;;;;;9.03;100;94264.73;;;;
2021/05/17 04:05:01;;;;;;;1.3;0.9;;;;;;;9.03;100;94264.73;;;;
2021/05/17 04:06:12;;;;;;;1.3;0.9;;;;;;;9.03;100;94264.73;;;;
2021/05/17 04:07:20;;;;;;;1.3;0.9;;;;;;;9.03;100;94264.73;;;;
2021/05/17 04:12:30;;;;;;;1.3;0.9;;;;;;;9.03;100;94264.73;;;;
2021/05/17 04:13:30;;;;;;;1.3;0.9;;;;;;;9.03;100;94264.73;;;;
2021/05/17 04:14:31;;;;;;;1.4;1.1;;;;;;;9.12;100;94279.94;;;;
2021/05/17 04:15:31;;;;;;;1.4;1.1;;;;;;;9.12;100;94279.94;;;;
2021/05/17 04:16:31;;;;;;;1.4;1.1;;;;;;;9.12;100;94279.94;;;;
2021/05/17 04:17:32;;;;;;;1.4;1.1;;;;;;;9.12;100;94279.94;;;;
2021/05/17 04:18:32;;;;;;;1.4;1.1;;;;;;;9.12;100;94279.94;;;;
2021/05/17 04:19:33;;;;;;;1.4;1.1;;;;;;;9.12;100;94279.94;;;;
2021/05/17 04:20:34;;;;;;;1.4;1.1;;;;;;;9.12;100;94279.94;;;;
2021/05/17 04:21:34;;;;;;;1.4;1.1;;;;;;;9.12;100;94279.94;;;;
2021/05/17 04:22:35;;;;;;;1.4;1.1;;;;;;;9.12;100;94279.94;;;;
2021/05/17 04:23:35;;;;;;;1.4;1.1;;;;;;;9.12;100;94279.94;;;;
2021/05/17 04:24:36;;;;;;;1.4;1.1;;;;;;;9.12;100;94279.94;;;;
2021/05/17 04:25:36;;;;;;;2.9;1.15;;;;;;;9.12;100;94295.54;;;;
2021/05/17 04:26:37;;;;;;;2.9;1.15;;;;;;;9.12;100;94295.54;;;;
2021/05/17 04:27:38;;;;;;;2.9;1.15;;;;;;;9.12;100;94295.54;;;;
2021/05/17 04:28:38;;;;;;;2.9;1.15;;;;;;;9.12;100;94295.54;;;;
2021/05/17 04:29:39;;;;;;;2.9;1.15;;;;;;;9.12;100;94295.54;;;;
2021/05/17 04:30:39;;;;;;;2.9;1.15;;;;;;;9.12;100;94295.54;;;;
2021/05/17 04:31:40;;;;;;;2.9;1.15;;;;;;;9.12;100;94295.54;;;;
2021/05/17 04:32:40;;;;;;;2.9;1.15;;;;;;;9.12;100;94295.54;;;;
2021/05/17 04:33:41;;;;;;;2.9;1.15;;;;;;;9.12;100;94295.54;;;;
2021/05/17 04:34:41;;;;;;;2.9;1.15;;;;;;;9.12;100;94295.54;;;;
2021/05/17 04:35:42;;;;;;;3.250001;1.45;;;;;;;9.12;100;94299.73;;;;
2021/05/17 04:36:42;;;;;;;3.250001;1.45;;;;;;;9.12;100;94299.73;;;;
2021/05/17 04:37:43;;;;;;;3.250001;1.45;;;;;;;9.12;100;94299.73;;;;
2021/05/17 04:38:43;;;;;;;3.250001;1.45;;;;;;;9.12;100;94299.73;;;;
2021/05/17 04:39:44;;;;;;;3.250001;1.45;;;;;;;9.12;100;94299.73;;;;
2021/05/17 04:40:46;;;;;;;3.250001;1.45;;;;;;;9.12;100;94299.73;;;;
2021/05/17 04:41:47;;;;;;;3.250001;1.45;;;;;;;9.12;100;94299.73;;;;
2021/05/17 04:42:47;;;;;;;3.250001;1.45;;;;;;;9.12;100;94299.73;;;;
2021/05/17 04:43:48;;;;;;;3.250001;1.45;;;;;;;9.12;100;94299.73;;;;
2021/05/17 04:44:48;;;;;;;3.250001;1.45;;;;;;;9.12;100;94299.73;;;;
2021/05/17 04:45:49;;;;;;;3.250001;1.45;;;;;;;9.12;100;94299.73;;;;
2021/05/17 04:46:49;;;;;;;2.9;1.3;;;;;;;9.16;100;94304.86;;;;
2021/05/17 04:47:50;;;;;;;2.9;1.3;;;;;;;9.16;100;94304.86;;;;
2021/05/17 04:48:50;;;;;;;2.9;1.3;;;;;;;9.16;100;94304.86;;;;
2021/05/17 04:49:51;;;;;;;2.9;1.3;;;;;;;9.16;100;94304.86;;;;
2021/05/17 04:50:52;;;;;;;2.9;1.3;;;;;;;9.16;100;94304.86;;;;
2021/05/17 04:51:52;;;;;;;2.9;1.3;;;;;;;9.16;100;94304.86;;;;
2021/05/17 04:52:53;;;;;;;2.9;1.3;;;;;;;9.16;100;94304.86;;;;
2021/05/17 04:53:54;;;;;;;2.9;1.3;;;;;;;9.16;100;94304.86;;;;
2021/05/17 04:54:54;;;;;;;2.9;1.3;;;;;;;9.16;100;94304.86;;;;
2021/05/17 04:55:54;;;;;;;2.9;1.3;;;;;;;9.16;100;94304.86;;;;
2021/05/17 04:56:55;;;;;;;2.9;1.3;;;;;;;9.16;100;94304.86;;;;
2021/05/17 04:57:55;;;;;;;3.85;1.3;;;;;;;9.24;100;94312.94;;;;
2021/05/17 04:58:56;;;;;;;3.85;1.3;;;;;;;9.24;100;94312.94;;;;
2021/05/17 04:59:56;;;;;;;3.85;1.3;;;;;;;9.24;100;94312.94;;;;
2021/05/17 05:00:57;;;;;;;3.85;1.3;;;;;;;9.24;100;94312.94;;;;
2021/05/17 05:01:57;;;;;;;3.85;1.3;;;;;;;9.24;100;94312.94;;;;
2021/05/17 05:02:58;;;;;;;3.85;1.3;;;;;;;9.24;100;94312.94;;;;
2021/05/17 05:03:58;;;;;;;3.85;1.3;;;;;;;9.24;100;94312.94;;;;
2021/05/17 05:04:59;;;;;;;3.85;1.3;;;;;;;9.24;100;94312.94;;;;
2021/05/17 05:06:00;;;;;;;3.85;1.3;;;;;;;9.24;100;94312.94;;;;
2021/05/17 05:07:01;;;;;;;3.85;1.3;;;;;;;9.24;100;94312.94;;;;
2021/05/17 05:08:01;;;;;;;3.55;1.3;;;;;;;9.37;100;94333.54;;;;
2021/05/17 05:09:02;;;;;;;3.55;1.3;;;;;;;9.37;100;94333.54;;;;
2021/05/17 05:10:04;;;;;;;3.55;1.3;;;;;;;9.37;100;94333.54;;;;
2021/05/17 05:11:06;;;;;;;3.55;1.3;;;;;;;9.37;100;94333.54;;;;
2021/05/17 05:12:06;;;;;;;3.55;1.3;;;;;;;9.37;100;94333.54;;;;
2021/05/17 05:13:07;;;;;;;3.55;1.3;;;;;;;9.37;100;94333.54;;;;
2021/05/17 05:14:08;;;;;;;3.55;1.3;;;;;;;9.37;100;94333.54;;;;
2021/05/17 05:15:08;;;;;;;3.55;1.3;;;;;;;9.37;100;94333.54;;;;
2021/05/17 05:16:10;;;;;;;3.55;1.3;;;;;;;9.37;100;94333.54;;;;
2021/05/17 05:17:10;;;;;;;3.55;1.3;;;;;;;9.37;100;94333.54;;;;
2021/05/17 05:18:11;;;;;;;3.55;1.3;;;;;;;9.37;100;94333.54;;;;
2021/05/17 05:19:11;;;;;;;2.75;1.3;;;;;;;9.42;100;94330.13;;;;
2021/05/17 05:20:12;;;;;;;2.75;1.3;;;;;;;9.42;100;94330.13;;;;
2021/05/17 05:21:13;;;;;;;2.75;1.3;;;;;;;9.42;100;94330.13;;;;
2021/05/17 05:22:13;;;;;;;2.75;1.3;;;;;;;9.42;100;94330.13;;;;
2021/05/17 05:23:14;;;;;;;2.75;1.3;;;;;;;9.42;100;94330.13;;;;
2021/05/17 05:24:16;;;;;;;2.75;1.3;;;;;;;9.42;100;94330.13;;;;
2021/05/17 05:25:18;;;;;;;2.75;1.3;;;;;;;9.42;100;94330.13;;;;
2021/05/17 05:26:41;;;;;;;2.75;1.3;;;;;;;9.42;100;94330.13;;;;
2021/05/17 05:27:44;;;;;;;2.75;1.3;;;;;;;9.42;100;94330.13;;;;
2021/05/17 05:28:58;;;;;;;2.75;1.3;;;;;;;9.42;100;94330.13;;;;
2021/05/17 05:30:09;;;;;;;4;1.45;;;;;;;9.48;100;94321.98;;;;
2021/05/17 05:31:14;;;;;;;4;1.45;;;;;;;9.48;100;94321.98;;;;
2021/05/17 05:32:24;;;;;;;4;1.45;;;;;;;9.48;100;94321.98;;;;
2021/05/17 05:33:26;;;;;;;4;1.45;;;;;;;9.48;100;94321.98;;;;
2021/05/17 05:34:27;;;;;;;4;1.45;;;;;;;9.48;100;94321.98;;;;
2021/05/17 05:35:28;;;;;;;4;1.45;;;;;;;9.48;100;94321.98;;;;
2021/05/17 05:36:28;;;;;;;4;1.45;;;;;;;9.48;100;94321.98;;;;
2021/05/17 05:37:29;;;;;;;4;1.45;;;;;;;9.48;100;94321.98;;;;
2021/05/17 05:38:30;;;;;;;4;1.45;;;;;;;9.48;100;94321.98;;;;
2021/05/17 05:39:30;;;;;;;4;1.45;;;;;;;9.48;100;94321.98;;;;
2021/05/17 05:40:31;;;;;;;5;1.35;;;;;;;9.77;100;94329.15;;;;
2021/05/17 05:41:31;;;;;;;5;1.35;;;;;;;9.77;100;94329.15;;;;
2021/05/17 05:42:32;;;;;;;5;1.35;;;;;;;9.77;100;94329.15;;;;
2021/05/17 05:43:33;;;;;;;5;1.35;;;;;;;9.77;100;94329.15;;;;
2021/05/17 05:44:42;;;;;;;5;1.35;;;;;;;9.77;100;94329.15;;;;
2021/05/17 05:45:45;;;;;;;5;1.35;;;;;;;9.77;100;94329.15;;;;
2021/05/17 05:46:45;;;;;;;5;1.35;;;;;;;9.77;100;94329.15;;;;
2021/05/17 05:47:46;;;;;;;5;1.35;;;;;;;9.77;100;94329.15;;;;
2021/05/17 05:48:47;;;;;;;5;1.35;;;;;;;9.77;100;94329.15;;;;
2021/05/17 05:49:47;;;;;;;5;1.35;;;;;;;9.77;100;94329.15;;;;
2021/05/17 05:50:49;;;;;;;3.25;1.6;;;;;;;10.3;100;94330.51;;;;
2021/05/17 05:51:50;;;;;;;3.25;1.6;;;;;;;10.3;100;94330.51;;;;
2021/05/17 05:52:51;;;;;;;3.25;1.6;;;;;;;10.3;100;94330.51;;;;
2021/05/17 05:53:51;;;;;;;3.25;1.6;;;;;;;10.3;100;94330.51;;;;
2021/05/17 05:54:52;;;;;;;3.25;1.6;;;;;;;10.3;100;94330.51;;;;
2021/05/17 05:55:53;;;;;;;3.25;1.6;;;;;;;10.3;100;94330.51;;;;
2021/05/17 05:56:53;;;;;;;3.25;1.6;;;;;;;10.3;100;94330.51;;;;
2021/05/17 05:57:54;;;;;;;3.25;1.6;;;;;;;10.3;100;94330.51;;;;
2021/05/17 05:58:55;;;;;;;3.25;1.6;;;;;;;10.3;100;94330.51;;;;
2021/05/17 05:59:56;;;;;;;3.25;1.6;;;;;;;10.3;100;94330.51;;;;
2021/05/17 06:00:56;;;;;;;3.25;1.6;;;;;;;10.3;100;94330.51;;;;
2021/05/17 06:01:57;;;;;;;4.950001;1.65;;;;;;;11.04;100;94342.63;;;;
2021/05/17 06:02:57;;;;;;;4.950001;1.65;;;;;;;11.04;100;94342.63;;;;
2021/05/17 06:03:59;;;;;;;4.950001;1.65;;;;;;;11.04;100;94342.63;;;;
2021/05/17 06:04:59;;;;;;;4.950001;1.65;;;;;;;11.04;100;94342.63;;;;
2021/05/17 06:06:00;;;;;;;4.950001;1.65;;;;;;;11.04;100;94342.63;;;;
2021/05/17 06:07:00;;;;;;;4.950001;1.65;;;;;;;11.04;100;94342.63;;;;
2021/05/17 06:08:01;;;;;;;4.950001;1.65;;;;;;;11.04;100;94342.63;;;;
2021/05/17 06:09:02;;;;;;;4.950001;1.65;;;;;;;11.04;100;94342.63;;;;
2021/05/17 06:10:03;;;;;;;4.950001;1.65;;;;;;;11.04;100;94342.63;;;;
2021/05/17 06:11:06;;;;;;;4.950001;1.65;;;;;;;11.04;100;94342.63;;;;
2021/05/17 06:12:08;;;;;;;4.2;1.35;;;;;;;11.35;100;94345.21;;;;
2021/05/17 06:13:10;;;;;;;4.2;1.35;;;;;;;11.35;100;94345.21;;;;
2021/05/17 06:14:11;;;;;;;4.2;1.35;;;;;;;11.35;100;94345.21;;;;
2021/05/17 06:15:12;;;;;;;4.2;1.35;;;;;;;11.35;100;94345.21;;;;
2021/05/17 06:16:15;;;;;;;4.2;1.35;;;;;;;11.35;100;94345.21;;;;
2021/05/17 06:17:16;;;;;;;4.2;1.35;;;;;;;11.35;100;94345.21;;;;
2021/05/17 06:18:16;;;;;;;4.2;1.35;;;;;;;11.35;100;94345.21;;;;
2021/05/17 06:19:18;;;;;;;4.2;1.35;;;;;;;11.35;100;94345.21;;;;
2021/05/17 06:20:19;;;;;;;4.2;1.35;;;;;;;11.35;100;94345.21;;;;
2021/05/17 06:21:21;;;;;;;4.2;1.35;;;;;;;11.35;100;94345.21;;;;
2021/05/17 06:22:22;;;;;;;4.2;1.35;;;;;;;11.35;100;94345.21;;;;
2021/05/17 06:23:23;;;;;;;4.850001;1.6;;;;;;;11.59;100;94363.16;;;;
2021/05/17 06:24:24;;;;;;;4.850001;1.6;;;;;;;11.59;100;94363.16;;;;
2021/05/17 06:25:26;;;;;;;4.850001;1.6;;;;;;;11.59;100;94363.16;;;;
2021/05/17 06:26:27;;;;;;;4.850001;1.6;;;;;;;11.59;100;94363.16;;;;
2021/05/17 06:27:29;;;;;;;4.850001;1.6;;;;;;;11.59;100;94363.16;;;;
2021/05/17 06:28:30;;;;;;;4.850001;1.6;;;;;;;11.59;100;94363.16;;;;
2021/05/17 06:29:31;;;;;;;4.850001;1.6;;;;;;;11.59;100;94363.16;;;;
2021/05/17 06:30:42;;;;;;;4.850001;1.6;;;;;;;11.59;100;94363.16;;;;
2021/05/17 06:31:44;;;;;;;4.850001;1.6;;;;;;;11.59;100;94363.16;;;;
2021/05/17 06:32:45;;;;;;;4.850001;1.6;;;;;;;11.59;100;94363.16;;;;
2021/05/17 06:33:48;;;;;;;4.05;1.4;;;;;;;11.92;100;94374.13;;;;